Terminal Aerodrome Forecast
Issued by NWS

Home | Current Version | Previous Version | Text Only | Print | Product List | Glossary On
Versions: 1 2 3 4 5 6 7 8 9 10 11 12 13
000
FTUS43 KPAH 041723
TAFCGI
TAF
KCGI 041723Z 0418/0518 25006KT P6SM SCT050 BKN250
     FM050000 VRB03KT P6SM SCT150 BKN250
     FM051000 VRB04KT P6SM VCSH SCT060 BKN150 PROB30 0511/0517 4SM
      TSRA BKN035CB
     FM051700 13004KT P6SM VCSH BKN035=

USA.gov is the U.S. government's official web portal to all federal, state and local government web resources and services.